Latest Weather Observations for Green Cape

IDN60801

Issued at 8:32 am EST Monday 25 September 2017 (issued every 30 minutes, with the page automatically refreshed every 10 minutes)

About weather observations | Map of weather stations | Latest weather observations for NSW | Other Formats
Station Details ID: 069137 Name: GREEN CAPE AWS Lat: -37.26 Lon: 150.05 Height: 19.4 m
Data from the previous 72 hours. | See also: Recent months at Green Cape
Date/Time
EST
Temp
°C
App
Temp
°C
Dew
Point
°C
Rel
Hum
%
Delta-T
°C
Wind Press
QNH
hPa
Press
MSL
hPa
Rain since
9am
mm
Dir  Spd
km/h
Gust
km/h
Spd
kts
Gust
kts
25/08:30am 17.8 14.9 4.7 42 6.3 WNW 9 13 5 7 1003.8 1003.8 0.0
25/08:00am 17.1 14.5 4.1 42 6.1 WNW 7 11 4 6 1003.4 1003.4 0.0
25/07:30am 16.1 13.4 3.5 43 5.8 W 7 9 4 5 1003.0 1003.0 0.0
25/07:00am 15.7 15.3 8.4 62 3.7 CALM 0 0 0 0 1002.8 1002.8 0.0
25/06:30am 14.7 14.3 8.2 65 3.3 CALM 0 0 0 0 1002.5 1002.5 0.0
25/06:00am 14.4 11.9 6.5 59 3.8 W 9 15 5 8 1002.2 1002.2 0.0
25/05:30am 14.8 11.4 6.1 56 4.2 WSW 13 17 7 9 1001.8 1001.8 0.0
25/05:00am 15.2 11.4 7.7 61 3.8 W 17 20 9 11 1001.3 1001.3 0.0
25/04:30am 15.9 11.3 5.8 51 4.9 W 19 22 10 12 1001.0 1001.0 0.0
25/04:00am 15.9 10.8 4.0 45 5.6 WNW 20 26 11 14 1000.6 1000.6 0.0
25/03:30am 15.9 10.6 5.2 49 5.1 WNW 22 28 12 15 1000.4 1000.4 0.0
25/03:00am 16.2 10.8 6.3 52 4.9 WNW 24 32 13 17 1000.2 1000.2 0.0
25/02:30am 16.4 11.3 6.2 51 5.0 WNW 22 32 12 17 1000.2 1000.2 0.0
25/02:00am 17.1 12.2 1.9 36 6.9 WNW 17 30 9 16 1000.2 1000.2 0.0
25/01:30am 17.4 12.0 1.0 33 7.2 NW 19 30 10 16 1000.2 1000.2 0.0
25/01:00am 17.9 11.0 4.5 41 6.4 WNW 30 41 16 22 1000.4 1000.4 0.0
25/12:30am 18.0 12.6 2.3 35 7.1 WNW 20 32 11 17 1000.5 1000.5 0.0
25/12:00am 17.7 13.0 0.8 32 7.5 NW 15 26 8 14 1000.7 1000.7 0.0
 
Date/Time
EST
Temp
°C
App
Temp
°C
Dew
Point
°C
Rel
Hum
%
Delta-T
°C
Wind Press
QNH
hPa
Press
MSL
hPa
Rain since
9am
mm
Dir  Spd
km/h
Gust
km/h
Spd
kts
Gust
kts
24/11:30pm 17.1 13.2 1.1 34 7.1 NW 11 19 6 10 1000.7 1000.7 0.0
24/11:00pm 17.3 13.5 1.7 35 7.0 NW 11 17 6 9 1000.9 1000.9 0.0
24/10:30pm 17.5 12.8 3.0 38 6.7 WNW 17 30 9 16 1001.2 1001.2 0.0
24/10:00pm 17.3 13.0 3.2 39 6.5 WNW 15 20 8 11 1001.2 1001.2 0.0
24/09:30pm 16.8 13.4 3.8 42 6.0 WNW 11 19 6 10 1001.2 1001.2 0.0
24/09:00pm 15.7 12.9 7.0 56 4.3 WNW 11 13 6 7 1001.0 1001.0 0.0
24/08:30pm 13.6 12.7 10.8 83 1.5 WNW 6 9 3 5 1000.9 1000.9 0.0
24/08:00pm 14.1 13.4 11.4 84 1.4 N 6 9 3 5 1000.8 1000.8 0.0
24/07:30pm 14.2 13.5 11.5 84 1.4 NNE 6 7 3 4 1000.4 1000.4 0.0
24/07:00pm 14.4 13.8 11.6 83 1.5 NNE 6 9 3 5 1000.3 1000.3 0.0
24/06:30pm 15.2 14.7 12.2 82 1.6 NE 6 7 3 4 999.9 999.9 0.0
24/06:00pm 15.2 13.2 11.4 78 2.1 ESE 13 15 7 8 999.6 999.6 0.0
24/05:30pm 15.5 12.7 11.3 76 2.3 ESE 17 20 9 11 999.3 999.3 0.0
24/05:00pm 16.0 12.9 11.6 75 2.4 SE 19 22 10 12 998.9 998.9 0.0
24/04:30pm 16.3 12.7 11.7 74 2.5 SE 22 26 12 14 998.6 998.6 0.0
24/04:00pm 16.9 11.3 11.4 70 3.0 SSE 32 43 17 23 998.2 998.2 0.0
24/03:30pm 17.3 12.0 11.1 67 3.3 SSE 30 43 16 23 997.8 997.8 0.0
24/03:29pm 17.5 13.0 11.3 67 3.4 SSE 26 43 14 23 997.8 997.8 0.0
24/03:00pm 22.5 14.7 2.6 27 9.5 WNW 33 50 18 27 997.6 997.6 0.0
24/02:58pm 23.1 16.1 2.0 25 9.9 WNW 28 44 15 24 997.6 997.6 0.0
24/02:49pm 24.2 17.9 1.8 23 10.6 WNW 24 39 13 21 997.5 997.5 0.0
24/02:30pm 21.8 13.9 6.1 36 7.9 W 37 48 20 26 997.4 997.4 0.0
24/02:00pm 22.2 12.6 4.3 31 8.8 W 44 54 24 29 997.2 997.2 0.0
24/01:30pm 21.7 12.7 4.7 33 8.3 W 41 50 22 27 997.3 997.3 0.0
24/01:00pm 22.8 14.0 3.4 28 9.4 WNW 39 61 21 33 997.1 997.1 0.0
24/12:30pm 22.1 13.2 3.3 29 9.0 W 39 59 21 32 996.8 996.8 0.0
24/12:22pm 22.4 12.7 3.0 28 9.3 WNW 43 63 23 34 996.9 996.9 0.0
24/12:00pm 22.0 10.4 4.1 31 8.8 W 54 69 29 37 996.7 996.7 0.0
24/11:47am 22.4 13.7 4.0 30 9.0 WNW 39 67 21 36 996.5 996.5 0.0
24/11:42am 24.3 17.1 3.0 25 10.3 WNW 30 52 16 28 996.8 996.8 0.0
24/11:30am 22.1 16.9 7.1 38 7.7 NW 24 41 13 22 996.9 996.9 0.0
24/11:00am 18.2 13.1 14.7 80 2.0 NNE 35 41 19 22 997.6 997.6 0.0
24/10:30am 17.6 11.9 14.3 81 1.9 NNE 37 44 20 24 998.6 998.6 0.0
24/10:00am 17.6 13.7 14.3 81 1.9 N 28 37 15 20 999.4 999.4 0.0
24/09:30am 16.9 12.2 14.2 84 1.5 N 32 37 17 20 999.8 999.8 0.0
24/09:00am 16.2 10.6 13.3 83 1.6 N 35 43 19 23 999.5 999.5 0.0
24/08:30am 16.2 11.9 13.1 82 1.7 N 28 32 15 17 999.5 999.5 0.0
24/08:00am 15.5 12.7 11.5 77 2.2 N 17 20 9 11 999.7 999.7 0.0
24/07:30am 14.5 11.9 10.7 78 2.0 N 15 20 8 11 999.8 999.8 0.0
24/07:00am 13.9 12.1 10.7 81 1.7 N 11 13 6 7 1000.1 1000.1 0.0
24/06:30am 14.3 13.6 9.9 75 2.3 NW 4 6 2 3 1000.0 1000.0 0.0
24/06:00am 14.4 12.7 9.8 74 2.4 NW 9 11 5 6 999.9 999.9 0.0
24/05:30am 13.9 12.3 10.1 78 2.0 N 9 13 5 7 999.3 999.3 0.0
24/05:00am 15.0 13.3 11.2 78 2.0 SSW 11 13 6 7 999.0 999.0 0.0
24/04:30am 15.0 11.6 11.4 79 1.9 SSW 20 24 11 13 998.9 998.9 0.0
24/04:00am 15.0 12.2 11.4 79 1.9 SSW 17 22 9 12 998.0 998.0 0.0
24/03:30am 15.0 11.6 11.4 79 1.9 SSW 20 24 11 13 997.7 997.7 0.0
24/03:00am 15.0 10.4 11.2 78 2.0 SSW 26 30 14 16 997.4 997.4 0.0
24/02:30am 15.1 9.4 11.1 77 2.1 SSW 32 35 17 19 997.2 997.2 0.0
24/02:00am 15.3 10.0 11.1 76 2.3 SSW 30 33 16 18 997.4 997.4 0.0
24/01:30am 15.6 8.1 10.8 73 2.6 SSW 41 46 22 25 997.0 997.0 0.0
24/01:00am 15.6 9.3 11.0 74 2.5 SSW 35 43 19 23 997.0 997.0 0.0
24/12:30am 15.9 8.1 11.1 73 2.6 SSW 43 48 23 26 996.7 996.7 0.0
24/12:00am 16.0 9.4 11.2 73 2.6 SSW 37 43 20 23 997.0 997.0 0.0
 
Date/Time
EST
Temp
°C
App
Temp
°C
Dew
Point
°C
Rel
Hum
%
Delta-T
°C
Wind Press
QNH
hPa
Press
MSL
hPa
Rain since
9am
mm
Dir  Spd
km/h
Gust
km/h
Spd
kts
Gust
kts
23/11:30pm 16.3 8.3 11.0 71 2.8 SSW 44 52 24 28 997.1 997.1 0.0
23/11:00pm 16.8 7.3 11.3 70 3.0 SSW 52 63 28 34 996.9 996.9 0.0
23/10:49pm 17.3 8.0 11.8 70 3.0 SSW 52 63 28 34 996.7 996.7 0.0
23/10:33pm 16.8 11.0 12.7 77 2.3 SSE 35 78 19 42 995.8 995.8 0.0
23/10:32pm 16.7 11.5 12.7 77 2.2 SSE 32 78 17 42 995.1 995.0 0.0
23/10:30pm 16.9 13.6 12.8 77 2.3 NNE 22 59 12 32 996.0 996.0 0.0
23/10:29pm 17.0 14.1 12.9 77 2.3 N 20 52 11 28 996.2 996.2 0.0
23/10:00pm 17.4 17.0 14.1 81 1.9 NW 9 17 5 9 994.7 994.6 0.0
23/09:30pm 16.0 13.6 13.7 86 1.3 N 19 20 10 11 994.7 994.6 0.0
23/09:00pm 16.3 12.6 14.0 86 1.3 N 26 30 14 16 994.6 994.5 0.0
23/08:30pm 16.8 12.4 14.1 84 1.5 N 30 35 16 19 994.3 994.2 0.0
23/08:00pm 17.1 12.4 14.2 83 1.7 N 32 37 17 20 994.4 994.3 0.0
23/07:30pm 17.4 11.5 13.5 78 2.2 N 37 46 20 25 994.4 994.3 0.0
23/07:00pm 18.3 11.7 13.6 74 2.7 N 41 54 22 29 994.6 994.5 0.0
23/06:30pm 18.6 11.8 13.2 71 3.1 N 41 46 22 25 994.4 994.3 0.0
23/06:00pm 18.1 12.1 13.2 73 2.8 N 37 46 20 25 994.5 994.4 0.0
23/05:30pm 18.3 11.9 13.2 72 2.9 N 39 48 21 26 994.6 994.5 0.0
23/05:00pm 18.4 13.2 13.5 73 2.8 N 33 43 18 23 995.0 994.9 0.0
23/04:30pm 18.6 11.3 13.5 72 2.9 N 44 57 24 31 995.2 995.1 0.0
23/04:00pm 19.5 12.2 13.4 68 3.5 N 44 56 24 30 995.2 995.1 0.0
23/03:30pm 20.4 13.3 13.4 64 4.0 N 43 56 23 30 995.1 995.0 0.0
23/03:00pm 21.1 15.2 13.5 62 4.4 N 37 46 20 25 995.7 995.7 0.0
23/02:30pm 21.0 15.7 13.2 61 4.5 N 33 39 18 21 995.6 995.6 0.0
23/02:00pm 21.2 16.6 13.6 62 4.4 N 30 39 16 21 996.5 996.5 0.0
23/01:30pm 20.7 16.1 13.4 63 4.2 N 30 35 16 19 997.1 997.1 0.0
23/01:00pm 21.0 17.0 14.2 65 4.0 N 28 32 15 17 997.9 997.9 0.0
23/12:30pm 20.6 17.5 14.5 68 3.6 N 24 28 13 15 998.6 998.6 0.0
23/12:00pm 18.7 14.1 13.6 72 2.9 N 30 33 16 18 999.1 999.1 0.0
23/11:30am 18.3 13.9 13.0 71 3.0 N 28 32 15 17 999.7 999.7 0.0
23/11:00am 20.3 16.5 13.7 66 3.8 NNE 26 30 14 16 1000.6 1000.6 0.0
23/10:30am 18.5 14.8 12.7 69 3.2 N 24 30 13 16 1001.2 1001.2 0.0
23/10:00am 18.9 14.9 12.9 68 3.4 N 26 28 14 15 1001.7 1001.7 0.0
23/09:30am 18.6 13.3 12.6 68 3.4 N 32 35 17 19 1002.1 1002.1 0.0
23/09:00am 19.0 13.2 11.6 62 4.1 N 33 39 18 21 1002.7 1002.7 0.0
23/08:30am 18.6 12.3 11.2 62 4.0 N 35 41 19 22 1003.0 1003.0 0.0
23/08:00am 17.7 11.3 10.6 63 3.8 N 35 41 19 22 1002.8 1002.8 0.0
23/07:30am 16.4 12.2 11.1 71 2.8 N 24 28 13 15 1003.1 1003.1 0.0
23/07:00am 16.2 12.8 10.7 70 2.9 N 19 22 10 12 1003.4 1003.4 0.0
23/06:30am 16.1 12.1 9.1 63 3.6 N 20 24 11 13 1003.8 1003.8 0.0
23/06:00am 14.9 11.3 8.4 65 3.3 N 17 20 9 11 1003.8 1003.8 0.0
23/05:30am 14.8 12.2 10.6 76 2.2 N 15 17 8 9 1004.1 1004.1 0.0
23/05:00am 15.1 12.5 10.7 75 2.3 N 15 17 8 9 1004.3 1004.3 0.0
23/04:30am 15.3 13.2 9.9 70 2.8 N 11 13 6 7 1004.5 1004.5 0.0
23/04:00am 15.7 12.7 9.1 65 3.4 N 15 19 8 10 1004.7 1004.7 0.0
23/03:30am 16.3 12.9 7.8 57 4.3 N 15 20 8 11 1004.9 1004.9 0.0
23/03:00am 15.7 13.1 9.4 66 3.3 N 13 20 7 11 1005.3 1005.3 0.0
23/02:30am 16.3 13.5 8.5 60 4.0 N 13 20 7 11 1005.7 1005.7 0.0
23/02:00am 16.3 12.6 8.0 58 4.2 N 17 20 9 11 1006.0 1006.0 0.0
23/01:30am 15.3 13.3 10.1 71 2.7 NNE 11 15 6 8 1006.4 1006.4 0.0
23/01:00am 15.5 13.9 8.7 64 3.5 WNW 7 11 4 6 1007.2 1007.2 0.0
23/12:30am 15.9 15.2 8.6 62 3.7 NNW 2 6 1 3 1007.2 1007.2 0.0
23/12:00am 15.0 14.4 10.4 74 2.4 SSE 4 6 2 3 1007.6 1007.6 0.0
 
Date/Time
EST
Temp
°C
App
Temp
°C
Dew
Point
°C
Rel
Hum
%
Delta-T
°C
Wind Press
QNH
hPa
Press
MSL
hPa
Rain since
9am
mm
Dir  Spd
km/h
Gust
km/h
Spd
kts
Gust
kts
22/11:30pm 15.4 15.4 9.7 69 3.0 CALM 0 6 0 3 1007.7 1007.7 0.0
22/11:00pm 15.5 14.4 8.5 63 3.6 NW 4 7 2 4 1008.1 1008.1 0.0
22/10:30pm 15.9 15.9 11.1 73 2.6 NNE 2 4 1 2 1008.1 1008.1 0.0
22/10:00pm 16.5 16.6 11.6 73 2.7 NNW 2 6 1 3 1008.2 1008.2 0.0
22/09:30pm 16.8 16.3 10.9 68 3.2 N 4 6 2 3 1008.5 1008.5 0.0
22/09:00pm 16.5 16.2 11.6 73 2.7 WNW 4 6 2 3 1008.6 1008.6 0.0
22/08:30pm 15.3 15.1 13.0 86 1.3 WNW 6 11 3 6 1008.7 1008.7 0.0
22/08:00pm 16.0 16.9 14.0 88 1.1 NE 2 6 1 3 1008.7 1008.7 0.0
22/07:30pm 15.8 16.4 14.2 90 0.9 NNE 4 6 2 3 1008.8 1008.8 0.0
22/07:00pm 15.8 17.1 14.2 90 0.9 CALM 0 0 0 0 1008.7 1008.7 0.0
22/06:30pm 15.9 16.4 14.1 89 1.0 NNE 4 9 2 5 1008.4 1008.4 0.0
22/06:00pm 16.3 15.9 14.1 87 1.3 NE 9 11 5 6 1008.2 1008.2 0.0
22/05:30pm 16.8 16.8 14.3 85 1.4 ENE 7 15 4 8 1008.1 1008.1 0.0
22/05:00pm 17.5 17.6 14.4 82 1.8 NE 7 11 4 6 1008.0 1008.0 0.0
22/04:30pm 18.1 17.6 14.8 81 1.9 NNE 11 13 6 7 1007.8 1007.8 0.0
22/04:00pm 18.4 18.6 14.7 79 2.2 ENE 7 11 4 6 1007.8 1007.8 0.0
22/03:30pm 18.8 19.0 14.7 77 2.4 NE 7 11 4 6 1007.7 1007.7 0.0
22/03:00pm 19.0 19.3 14.9 77 2.4 NE 7 9 4 5 1007.9 1007.9 0.0
22/02:30pm 19.3 19.6 15.0 76 2.5 NE 7 7 4 4 1008.1 1008.1 0.0
22/02:00pm 18.8 18.9 14.5 76 2.5 NNE 7 9 4 5 1008.2 1008.2 0.0
22/01:30pm 18.9 18.7 14.6 76 2.5 N 9 11 5 6 1008.6 1008.6 0.0
22/01:00pm 19.1 19.3 14.8 76 2.5 N 7 9 4 5 1009.0 1009.0 0.0
22/12:30pm 18.1 17.6 13.8 76 2.5 NNE 9 9 5 5 1009.3 1009.3 0.0
22/12:00pm 17.8 17.7 13.3 75 2.5 NNE 6 6 3 3 1009.8 1009.8 0.0
22/11:30am 18.4 18.4 13.7 74 2.7 ENE 6 9 3 5 1010.1 1010.1 0.0
22/11:00am 19.6 20.2 14.2 71 3.1 ESE 4 6 2 3 1010.3 1010.3 0.0
22/10:30am 19.3 19.8 13.9 71 3.1 ESE 4 6 2 3 1010.6 1010.6 0.0
22/10:00am 18.7 18.9 11.8 64 3.8 SE 2 4 1 2 1010.9 1010.9 0.0
22/09:30am 18.0 17.3 10.1 60 4.2 S 4 6 2 3 1011.3 1011.3 0.0
22/09:00am 16.8 16.0 10.9 68 3.2 SW 6 9 3 5 1011.6 1011.6 0.0

Other Formats:

Comma delimited format used in spreadsheet applications
http://www.bom.gov.au/fwo/IDN60801/IDN60801.94934.axf

JavaScript Object Notation format (JSON) in row-major order
http://www.bom.gov.au/fwo/IDN60801/IDN60801.94934.json